sensor_id;sensor_type;location;lat;lon;timestamp;pressure;altitude;pressure_sealevel;temperature;humidity
51829;BME280;37881;48.024;8.774;2024-01-10T00:02:05;94391.47;;;-6.32;100.00
51829;BME280;37881;48.024;8.774;2024-01-10T00:04:31;94393.75;;;-6.11;100.00
51829;BME280;37881;48.024;8.774;2024-01-10T00:06:58;94388.19;;;-6.01;100.00
51829;BME280;37881;48.024;8.774;2024-01-10T00:09:25;94391.91;;;-5.88;100.00
51829;BME280;37881;48.024;8.774;2024-01-10T00:11:52;94382.09;;;-5.79;100.00
51829;BME280;37881;48.024;8.774;2024-01-10T00:14:18;94389.34;;;-5.93;100.00
51829;BME280;37881;48.024;8.774;2024-01-10T00:16:45;94389.66;;;-5.95;100.00
51829;BME280;37881;48.024;8.774;2024-01-10T00:19:12;94389.44;;;-5.85;100.00
51829;BME280;37881;48.024;8.774;2024-01-10T00:21:39;94389.63;;;-5.81;100.00
51829;BME280;37881;48.024;8.774;2024-01-10T00:24:06;94387.03;;;-5.86;100.00
51829;BME280;37881;48.024;8.774;2024-01-10T00:26:32;94396.13;;;-5.73;100.00
51829;BME280;37881;48.024;8.774;2024-01-10T00:28:59;94400.38;;;-5.72;100.00
51829;BME280;37881;48.024;8.774;2024-01-10T00:31:31;94386.31;;;-6.14;100.00
51829;BME280;37881;48.024;8.774;2024-01-10T00:33:58;94387.41;;;-6.01;100.00
51829;BME280;37881;48.024;8.774;2024-01-10T00:36:25;94377.22;;;-5.77;100.00
51829;BME280;37881;48.024;8.774;2024-01-10T00:38:52;94378.09;;;-5.68;100.00
51829;BME280;37881;48.024;8.774;2024-01-10T00:41:19;94379.06;;;-6.00;100.00
51829;BME280;37881;48.024;8.774;2024-01-10T00:43:46;94390.44;;;-5.94;100.00
51829;BME280;37881;48.024;8.774;2024-01-10T00:46:13;94385.56;;;-5.92;100.00
51829;BME280;37881;48.024;8.774;2024-01-10T00:48:39;94378.00;;;-5.99;100.00
51829;BME280;37881;48.024;8.774;2024-01-10T00:51:06;94386.25;;;-5.87;100.00
51829;BME280;37881;48.024;8.774;2024-01-10T00:53:35;94365.91;;;-5.74;100.00
51829;BME280;37881;48.024;8.774;2024-01-10T00:56:02;94382.28;;;-5.75;100.00
51829;BME280;37881;48.024;8.774;2024-01-10T00:58:29;94370.38;;;-5.69;100.00
51829;BME280;37881;48.024;8.774;2024-01-10T01:00:56;94368.19;;;-5.67;100.00
51829;BME280;37881;48.024;8.774;2024-01-10T01:03:23;94374.81;;;-5.65;100.00
51829;BME280;37881;48.024;8.774;2024-01-10T01:05:50;94372.88;;;-5.73;100.00
51829;BME280;37881;48.024;8.774;2024-01-10T01:08:17;94383.16;;;-6.03;100.00
51829;BME280;37881;48.024;8.774;2024-01-10T01:10:44;94376.41;;;-6.14;100.00
51829;BME280;37881;48.024;8.774;2024-01-10T01:13:10;94379.28;;;-6.10;100.00
51829;BME280;37881;48.024;8.774;2024-01-10T01:15:37;94379.00;;;-6.09;100.00
51829;BME280;37881;48.024;8.774;2024-01-10T01:18:04;94383.38;;;-5.90;100.00
51829;BME280;37881;48.024;8.774;2024-01-10T01:20:31;94380.91;;;-5.87;100.00
51829;BME280;37881;48.024;8.774;2024-01-10T01:22:58;94381.75;;;-6.00;100.00
51829;BME280;37881;48.024;8.774;2024-01-10T01:25:25;94383.38;;;-5.90;100.00
51829;BME280;37881;48.024;8.774;2024-01-10T01:27:52;94382.38;;;-5.80;100.00
51829;BME280;37881;48.024;8.774;2024-01-10T01:30:18;94385.34;;;-5.82;100.00
51829;BME280;37881;48.024;8.774;2024-01-10T01:32:48;94391.41;;;-5.90;100.00
51829;BME280;37881;48.024;8.774;2024-01-10T01:35:15;94387.00;;;-5.95;100.00
51829;BME280;37881;48.024;8.774;2024-01-10T01:37:42;94382.19;;;-5.84;100.00
51829;BME280;37881;48.024;8.774;2024-01-10T01:40:09;94370.06;;;-5.68;100.00
51829;BME280;37881;48.024;8.774;2024-01-10T01:42:36;94372.34;;;-5.61;100.00
51829;BME280;37881;48.024;8.774;2024-01-10T01:45:03;94374.19;;;-5.62;100.00
51829;BME280;37881;48.024;8.774;2024-01-10T01:47:30;94374.44;;;-5.72;100.00
51829;BME280;37881;48.024;8.774;2024-01-10T01:49:57;94384.75;;;-5.79;100.00
51829;BME280;37881;48.024;8.774;2024-01-10T01:52:24;94373.06;;;-5.69;100.00
51829;BME280;37881;48.024;8.774;2024-01-10T01:54:51;94382.44;;;-5.72;100.00
51829;BME280;37881;48.024;8.774;2024-01-10T01:57:18;94378.44;;;-5.83;100.00
51829;BME280;37881;48.024;8.774;2024-01-10T01:59:45;94379.78;;;-5.72;100.00
51829;BME280;37881;48.024;8.774;2024-01-10T02:02:12;94372.00;;;-5.59;100.00
51829;BME280;37881;48.024;8.774;2024-01-10T02:04:40;94380.91;;;-5.50;100.00
51829;BME280;37881;48.024;8.774;2024-01-10T02:07:07;94377.59;;;-5.70;100.00
51829;BME280;37881;48.024;8.774;2024-01-10T02:09:34;94382.19;;;-5.84;100.00
51829;BME280;37881;48.024;8.774;2024-01-10T02:12:01;94384.75;;;-6.01;100.00
51829;BME280;37881;48.024;8.774;2024-01-10T02:14:30;94383.06;;;-5.97;100.00
51829;BME280;37881;48.024;8.774;2024-01-10T02:16:56;94383.28;;;-5.85;100.00
51829;BME280;37881;48.024;8.774;2024-01-10T02:19:23;94391.41;;;-5.90;100.00
51829;BME280;37881;48.024;8.774;2024-01-10T02:21:50;94384.16;;;-5.76;100.00
51829;BME280;37881;48.024;8.774;2024-01-10T02:24:17;94383.75;;;-5.69;100.00
51829;BME280;37881;48.024;8.774;2024-01-10T02:26:44;94376.03;;;-5.71;100.00
51829;BME280;37881;48.024;8.774;2024-01-10T02:29:11;94375.63;;;-5.78;100.00
51829;BME280;37881;48.024;8.774;2024-01-10T02:31:37;94380.78;;;-5.82;100.00
51829;BME280;37881;48.024;8.774;2024-01-10T02:34:04;94374.47;;;-5.86;100.00
51829;BME280;37881;48.024;8.774;2024-01-10T02:36:31;94368.25;;;-5.81;100.00
51829;BME280;37881;48.024;8.774;2024-01-10T02:38:58;94370.66;;;-5.93;100.00
51829;BME280;37881;48.024;8.774;2024-01-10T02:41:25;94368.31;;;-5.72;100.00
51829;BME280;37881;48.024;8.774;2024-01-10T02:43:51;94357.56;;;-5.58;100.00
51829;BME280;37881;48.024;8.774;2024-01-10T02:46:18;94352.66;;;-5.43;100.00
51829;BME280;37881;48.024;8.774;2024-01-10T02:48:46;94349.44;;;-5.31;100.00
51829;BME280;37881;48.024;8.774;2024-01-10T02:51:13;94351.63;;;-5.33;100.00
51829;BME280;37881;48.024;8.774;2024-01-10T02:53:40;94350.19;;;-5.39;100.00
51829;BME280;37881;48.024;8.774;2024-01-10T02:56:07;94360.97;;;-5.22;100.00
51829;BME280;37881;48.024;8.774;2024-01-10T02:58:34;94355.63;;;-5.22;100.00
51829;BME280;37881;48.024;8.774;2024-01-10T03:01:00;94347.25;;;-5.29;100.00
51829;BME280;37881;48.024;8.774;2024-01-10T03:03:28;94349.84;;;-5.37;100.00
51829;BME280;37881;48.024;8.774;2024-01-10T03:05:55;94355.31;;;-5.20;100.00
51829;BME280;37881;48.024;8.774;2024-01-10T03:08:21;94365.25;;;-5.20;100.00
51829;BME280;37881;48.024;8.774;2024-01-10T03:10:48;94352.47;;;-5.24;100.00
51829;BME280;37881;48.024;8.774;2024-01-10T03:13:15;94353.91;;;-5.63;100.00
51829;BME280;37881;48.024;8.774;2024-01-10T03:15:42;94352.75;;;-5.70;100.00
51829;BME280;37881;48.024;8.774;2024-01-10T03:18:08;94351.19;;;-5.71;100.00
51829;BME280;37881;48.024;8.774;2024-01-10T03:20:36;94346.94;;;-5.86;100.00
51829;BME280;37881;48.024;8.774;2024-01-10T03:23:03;94344.28;;;-6.09;100.00
51829;BME280;37881;48.024;8.774;2024-01-10T03:25:30;94347.22;;;-5.96;100.00
51829;BME280;37881;48.024;8.774;2024-01-10T03:27:56;94344.81;;;-5.98;100.00
51829;BME280;37881;48.024;8.774;2024-01-10T03:30:23;94336.16;;;-6.04;100.00
51829;BME280;37881;48.024;8.774;2024-01-10T03:32:51;94337.25;;;-5.82;100.00
51829;BME280;37881;48.024;8.774;2024-01-10T03:35:18;94338.31;;;-5.69;100.00
51829;BME280;37881;48.024;8.774;2024-01-10T03:37:45;94341.59;;;-5.50;100.00
51829;BME280;37881;48.024;8.774;2024-01-10T03:40:12;94341.00;;;-5.47;100.00
51829;BME280;37881;48.024;8.774;2024-01-10T03:42:38;94341.81;;;-5.37;100.00
51829;BME280;37881;48.024;8.774;2024-01-10T03:45:06;94340.06;;;-5.42;100.00
51829;BME280;37881;48.024;8.774;2024-01-10T03:47:32;94354.13;;;-5.36;100.00
51829;BME280;37881;48.024;8.774;2024-01-10T03:49:59;94353.50;;;-5.33;100.00
51829;BME280;37881;48.024;8.774;2024-01-10T03:52:26;94360.19;;;-5.22;100.00
51829;BME280;37881;48.024;8.774;2024-01-10T03:54:53;94369.13;;;-5.27;100.00
51829;BME280;37881;48.024;8.774;2024-01-10T03:57:19;94366.66;;;-5.59;100.00
51829;BME280;37881;48.024;8.774;2024-01-10T03:59:46;94368.47;;;-5.55;100.00
51829;BME280;37881;48.024;8.774;2024-01-10T04:02:13;94368.06;;;-5.62;100.00
51829;BME280;37881;48.024;8.774;2024-01-10T04:04:40;94382.69;;;-5.82;100.00
51829;BME280;37881;48.024;8.774;2024-01-10T04:07:07;94383.78;;;-5.83;100.00
51829;BME280;37881;48.024;8.774;2024-01-10T04:09:33;94386.13;;;-5.82;100.00
51829;BME280;37881;48.024;8.774;2024-01-10T04:12:00;94379.69;;;-6.17;100.00
51829;BME280;37881;48.024;8.774;2024-01-10T04:14:27;94382.72;;;-5.96;100.00
51829;BME280;37881;48.024;8.774;2024-01-10T04:16:54;94373.31;;;-5.57;100.00
51829;BME280;37881;48.024;8.774;2024-01-10T04:19:21;94378.13;;;-5.45;100.00
51829;BME280;37881;48.024;8.774;2024-01-10T04:21:48;94376.53;;;-5.46;100.00
51829;BME280;37881;48.024;8.774;2024-01-10T04:24:15;94369.25;;;-5.32;100.00
51829;BME280;37881;48.024;8.774;2024-01-10T04:26:42;94366.94;;;-5.25;100.00
51829;BME280;37881;48.024;8.774;2024-01-10T04:29:08;94368.69;;;-5.20;100.00
51829;BME280;37881;48.024;8.774;2024-01-10T04:31:35;94368.22;;;-5.22;100.00
51829;BME280;37881;48.024;8.774;2024-01-10T04:34:02;94358.00;;;-5.20;100.00
51829;BME280;37881;48.024;8.774;2024-01-10T04:36:29;94361.03;;;-5.35;100.00
51829;BME280;37881;48.024;8.774;2024-01-10T04:38:56;94370.34;;;-5.33;100.00
51829;BME280;37881;48.024;8.774;2024-01-10T04:41:23;94368.31;;;-5.27;100.00
51829;BME280;37881;48.024;8.774;2024-01-10T04:43:51;94364.13;;;-5.19;100.00
51829;BME280;37881;48.024;8.774;2024-01-10T04:46:17;94369.38;;;-5.14;100.00
51829;BME280;37881;48.024;8.774;2024-01-10T04:48:45;94374.84;;;-5.19;100.00
51829;BME280;37881;48.024;8.774;2024-01-10T04:51:14;94363.06;;;-5.41;100.00
51829;BME280;37881;48.024;8.774;2024-01-10T04:53:41;94370.22;;;-5.28;100.00
51829;BME280;37881;48.024;8.774;2024-01-10T04:56:08;94376.53;;;-5.69;100.00
51829;BME280;37881;48.024;8.774;2024-01-10T04:58:34;94387.03;;;-6.23;100.00
51829;BME280;37881;48.024;8.774;2024-01-10T05:01:04;94384.06;;;-6.07;100.00
51829;BME280;37881;48.024;8.774;2024-01-10T05:03:36;94377.81;;;-6.16;100.00
51829;BME280;37881;48.024;8.774;2024-01-10T05:06:05;94375.25;;;-6.21;100.00
51829;BME280;37881;48.024;8.774;2024-01-10T05:08:32;94380.41;;;-6.11;100.00
51829;BME280;37881;48.024;8.774;2024-01-10T05:10:59;94379.72;;;-5.94;100.00
51829;BME280;37881;48.024;8.774;2024-01-10T05:13:26;94376.56;;;-5.83;100.00
51829;BME280;37881;48.024;8.774;2024-01-10T05:15:52;94378.13;;;-5.82;100.00
51829;BME280;37881;48.024;8.774;2024-01-10T05:18:20;94375.41;;;-5.68;100.00
51829;BME280;37881;48.024;8.774;2024-01-10T05:20:48;94381.59;;;-5.81;100.00
51829;BME280;37881;48.024;8.774;2024-01-10T05:23:17;94373.19;;;-6.25;100.00
51829;BME280;37881;48.024;8.774;2024-01-10T05:25:43;94375.03;;;-5.97;100.00
51829;BME280;37881;48.024;8.774;2024-01-10T05:28:10;94364.06;;;-5.73;100.00
51829;BME280;37881;48.024;8.774;2024-01-10T05:30:39;94364.56;;;-5.49;100.00
51829;BME280;37881;48.024;8.774;2024-01-10T05:33:07;94370.16;;;-5.36;100.00
51829;BME280;37881;48.024;8.774;2024-01-10T05:35:35;94375.56;;;-5.50;100.00
51829;BME280;37881;48.024;8.774;2024-01-10T05:38:05;94375.41;;;-5.68;100.00
51829;BME280;37881;48.024;8.774;2024-01-10T05:40:32;94377.13;;;-5.86;100.00
51829;BME280;37881;48.024;8.774;2024-01-10T05:42:59;94376.94;;;-6.26;100.00
51829;BME280;37881;48.024;8.774;2024-01-10T05:45:26;94366.94;;;-5.84;100.00
51829;BME280;37881;48.024;8.774;2024-01-10T05:47:53;94371.00;;;-5.50;100.00
51829;BME280;37881;48.024;8.774;2024-01-10T05:50:21;94366.72;;;-5.37;100.00
51829;BME280;37881;48.024;8.774;2024-01-10T05:52:48;94372.06;;;-5.37;100.00
51829;BME280;37881;48.024;8.774;2024-01-10T05:55:15;94371.91;;;-5.32;100.00
51829;BME280;37881;48.024;8.774;2024-01-10T05:57:42;94377.34;;;-5.23;100.00
51829;BME280;37881;48.024;8.774;2024-01-10T06:00:09;94376.78;;;-5.34;100.00
51829;BME280;37881;48.024;8.774;2024-01-10T06:02:37;94378.13;;;-5.23;100.00
51829;BME280;37881;48.024;8.774;2024-01-10T06:05:07;94378.19;;;-5.14;100.00
51829;BME280;37881;48.024;8.774;2024-01-10T06:07:36;94373.88;;;-5.24;100.00
51829;BME280;37881;48.024;8.774;2024-01-10T06:10:03;94375.22;;;-5.35;100.00
51829;BME280;37881;48.024;8.774;2024-01-10T06:12:30;94377.25;;;-5.54;100.00
51829;BME280;37881;48.024;8.774;2024-01-10T06:14:57;94379.47;;;-5.34;100.00
51829;BME280;37881;48.024;8.774;2024-01-10T06:17:24;94379.53;;;-5.25;100.00
51829;BME280;37881;48.024;8.774;2024-01-10T06:19:51;94384.06;;;-5.26;100.00
51829;BME280;37881;48.024;8.774;2024-01-10T06:22:18;94385.19;;;-5.27;100.00
51829;BME280;37881;48.024;8.774;2024-01-10T06:24:44;94394.53;;;-5.15;100.00
51829;BME280;37881;48.024;8.774;2024-01-10T06:27:11;94387.19;;;-5.32;100.00
51829;BME280;37881;48.024;8.774;2024-01-10T06:29:38;94392.00;;;-5.43;100.00
51829;BME280;37881;48.024;8.774;2024-01-10T06:32:05;94386.03;;;-5.40;100.00
51829;BME280;37881;48.024;8.774;2024-01-10T06:34:33;94394.06;;;-5.17;100.00
51829;BME280;37881;48.024;8.774;2024-01-10T06:37:00;94398.31;;;-5.16;100.00
51829;BME280;37881;48.024;8.774;2024-01-10T06:39:27;94388.59;;;-5.12;100.00
51829;BME280;37881;48.024;8.774;2024-01-10T06:41:54;94392.72;;;-5.06;100.00
51829;BME280;37881;48.024;8.774;2024-01-10T06:44:21;94391.72;;;-4.88;100.00
51829;BME280;37881;48.024;8.774;2024-01-10T06:46:48;94390.50;;;-4.82;100.00
51829;BME280;37881;48.024;8.774;2024-01-10T06:49:14;94391.34;;;-4.72;100.00
51829;BME280;37881;48.024;8.774;2024-01-10T06:51:42;94386.97;;;-4.68;100.00
51829;BME280;37881;48.024;8.774;2024-01-10T06:54:08;94394.03;;;-4.72;100.00
51829;BME280;37881;48.024;8.774;2024-01-10T06:56:35;94400.38;;;-4.91;100.00
51829;BME280;37881;48.024;8.774;2024-01-10T06:59:02;94395.25;;;-5.01;100.00
51829;BME280;37881;48.024;8.774;2024-01-10T07:01:29;94401.97;;;-5.12;100.00
51829;BME280;37881;48.024;8.774;2024-01-10T07:03:56;94399.97;;;-5.07;100.00
51829;BME280;37881;48.024;8.774;2024-01-10T07:06:23;94399.53;;;-5.00;100.00
51829;BME280;37881;48.024;8.774;2024-01-10T07:08:50;94405.47;;;-5.26;100.00
51829;BME280;37881;48.024;8.774;2024-01-10T07:11:17;94406.94;;;-5.42;100.00
51829;BME280;37881;48.024;8.774;2024-01-10T07:13:46;94409.06;;;-5.30;100.00
51829;BME280;37881;48.024;8.774;2024-01-10T07:16:13;94406.06;;;-5.15;100.00
51829;BME280;37881;48.024;8.774;2024-01-10T07:18:43;94416.84;;;-5.20;100.00
51829;BME280;37881;48.024;8.774;2024-01-10T07:21:12;94413.28;;;-5.15;100.00
51829;BME280;37881;48.024;8.774;2024-01-10T07:23:39;94415.34;;;-5.12;100.00
51829;BME280;37881;48.024;8.774;2024-01-10T07:26:07;94418.22;;;-5.09;100.00
51829;BME280;37881;48.024;8.774;2024-01-10T07:28:34;94430.72;;;-4.95;100.00
51829;BME280;37881;48.024;8.774;2024-01-10T07:31:01;94428.88;;;-4.95;100.00
51829;BME280;37881;48.024;8.774;2024-01-10T07:33:29;94434.13;;;-5.04;100.00
51829;BME280;37881;48.024;8.774;2024-01-10T07:35:57;94437.78;;;-4.99;100.00
51829;BME280;37881;48.024;8.774;2024-01-10T07:38:24;94434.84;;;-4.89;100.00
51829;BME280;37881;48.024;8.774;2024-01-10T07:40:51;94435.53;;;-4.84;100.00
51829;BME280;37881;48.024;8.774;2024-01-10T07:43:18;94444.84;;;-4.81;100.00
51829;BME280;37881;48.024;8.774;2024-01-10T07:45:44;94450.94;;;-4.67;100.00
51829;BME280;37881;48.024;8.774;2024-01-10T07:48:11;94444.09;;;-4.50;100.00
51829;BME280;37881;48.024;8.774;2024-01-10T07:50:38;94442.59;;;-4.34;100.00
51829;BME280;37881;48.024;8.774;2024-01-10T07:53:05;94448.81;;;-4.47;100.00
51829;BME280;37881;48.024;8.774;2024-01-10T07:55:32;94447.44;;;-4.45;100.00
51829;BME280;37881;48.024;8.774;2024-01-10T07:57:58;94445.44;;;-4.62;100.00
51829;BME280;37881;48.024;8.774;2024-01-10T08:00:25;94452.88;;;-4.58;100.00
51829;BME280;37881;48.024;8.774;2024-01-10T08:02:52;94447.94;;;-4.65;100.00
51829;BME280;37881;48.024;8.774;2024-01-10T08:05:19;94456.63;;;-4.59;100.00
51829;BME280;37881;48.024;8.774;2024-01-10T08:07:48;94454.19;;;-4.47;100.00
51829;BME280;37881;48.024;8.774;2024-01-10T08:10:14;94452.78;;;-4.45;100.00
51829;BME280;37881;48.024;8.774;2024-01-10T08:12:42;94456.78;;;-4.33;100.00
51829;BME280;37881;48.024;8.774;2024-01-10T08:15:08;94452.94;;;-4.41;100.00
51829;BME280;37881;48.024;8.774;2024-01-10T08:17:37;94454.78;;;-4.19;100.00
51829;BME280;37881;48.024;8.774;2024-01-10T08:20:07;94455.94;;;-4.11;100.00
51829;BME280;37881;48.024;8.774;2024-01-10T08:22:35;94452.50;;;-3.94;100.00
51829;BME280;37881;48.024;8.774;2024-01-10T08:25:02;94450.19;;;-3.87;100.00
51829;BME280;37881;48.024;8.774;2024-01-10T08:27:29;94452.09;;;-3.70;100.00
51829;BME280;37881;48.024;8.774;2024-01-10T08:29:56;94453.72;;;-3.61;100.00
51829;BME280;37881;48.024;8.774;2024-01-10T08:32:23;94457.22;;;-3.51;100.00
51829;BME280;37881;48.024;8.774;2024-01-10T08:34:50;94469.25;;;-3.40;100.00
51829;BME280;37881;48.024;8.774;2024-01-10T08:37:17;94464.81;;;-3.36;100.00
51829;BME280;37881;48.024;8.774;2024-01-10T08:39:44;94461.22;;;-3.05;100.00
51829;BME280;37881;48.024;8.774;2024-01-10T08:42:10;94461.84;;;-2.91;100.00
51829;BME280;37881;48.024;8.774;2024-01-10T08:44:38;94472.56;;;-2.65;100.00
51829;BME280;37881;48.024;8.774;2024-01-10T08:47:05;94467.34;;;-2.61;100.00
51829;BME280;37881;48.024;8.774;2024-01-10T08:49:32;94465.41;;;-2.34;100.00
51829;BME280;37881;48.024;8.774;2024-01-10T08:51:58;94471.41;;;-2.29;100.00
51829;BME280;37881;48.024;8.774;2024-01-10T08:54:25;94471.41;;;-2.37;100.00
51829;BME280;37881;48.024;8.774;2024-01-10T08:56:53;94468.25;;;-2.31;100.00
51829;BME280;37881;48.024;8.774;2024-01-10T08:59:20;94469.16;;;-2.18;100.00
51829;BME280;37881;48.024;8.774;2024-01-10T09:01:47;94466.66;;;-2.23;100.00
51829;BME280;37881;48.024;8.774;2024-01-10T09:04:13;94471.09;;;-2.27;100.00
51829;BME280;37881;48.024;8.774;2024-01-10T09:06:40;94477.47;;;-3.19;100.00
51829;BME280;37881;48.024;8.774;2024-01-10T09:09:07;94472.19;;;-3.59;100.00
51829;BME280;37881;48.024;8.774;2024-01-10T09:11:34;94478.22;;;-3.45;100.00
51829;BME280;37881;48.024;8.774;2024-01-10T09:14:07;94479.03;;;-3.27;100.00
51829;BME280;37881;48.024;8.774;2024-01-10T09:16:35;94489.28;;;-3.20;100.00
51829;BME280;37881;48.024;8.774;2024-01-10T09:19:02;94486.31;;;-2.75;100.00
51829;BME280;37881;48.024;8.774;2024-01-10T09:21:29;94489.59;;;-2.52;100.00
51829;BME280;37881;48.024;8.774;2024-01-10T09:23:56;94492.50;;;-2.83;100.00
51829;BME280;37881;48.024;8.774;2024-01-10T09:26:24;94491.97;;;-2.42;100.00
51829;BME280;37881;48.024;8.774;2024-01-10T09:28:51;94499.22;;;-2.25;100.00
51829;BME280;37881;48.024;8.774;2024-01-10T09:31:18;94500.25;;;-1.99;100.00
51829;BME280;37881;48.024;8.774;2024-01-10T09:33:45;94493.41;;;-1.88;100.00
51829;BME280;37881;48.024;8.774;2024-01-10T09:36:12;94490.69;;;-1.79;100.00
51829;BME280;37881;48.024;8.774;2024-01-10T09:38:39;94499.47;;;-1.62;100.00
51829;BME280;37881;48.024;8.774;2024-01-10T09:41:06;94497.19;;;-1.89;100.00
51829;BME280;37881;48.024;8.774;2024-01-10T09:43:33;94490.31;;;-1.61;100.00
51829;BME280;37881;48.024;8.774;2024-01-10T09:46:01;94498.09;;;-1.08;100.00
51829;BME280;37881;48.024;8.774;2024-01-10T09:48:29;94494.34;;;-0.95;100.00
51829;BME280;37881;48.024;8.774;2024-01-10T09:50:57;94507.97;;;-0.70;100.00
51829;BME280;37881;48.024;8.774;2024-01-10T09:53:25;94503.41;;;-0.99;100.00
51829;BME280;37881;48.024;8.774;2024-01-10T09:55:57;94496.91;;;-0.98;100.00
51829;BME280;37881;48.024;8.774;2024-01-10T09:58:26;94493.28;;;-0.82;100.00
51829;BME280;37881;48.024;8.774;2024-01-10T10:00:53;94496.25;;;-0.74;100.00
51829;BME280;37881;48.024;8.774;2024-01-10T10:03:20;94497.94;;;-0.91;100.00
51829;BME280;37881;48.024;8.774;2024-01-10T10:05:47;94499.03;;;-1.34;100.00
51829;BME280;37881;48.024;8.774;2024-01-10T10:08:14;94503.25;;;-1.03;100.00
51829;BME280;37881;48.024;8.774;2024-01-10T10:10:42;94496.50;;;-1.39;100.00
51829;BME280;37881;48.024;8.774;2024-01-10T10:13:27;94497.50;;;-1.44;100.00
51829;BME280;37881;48.024;8.774;2024-01-10T10:16:02;94501.19;;;-1.27;100.00
51829;BME280;37881;48.024;8.774;2024-01-10T10:18:30;94505.88;;;-1.45;100.00
51829;BME280;37881;48.024;8.774;2024-01-10T10:21:28;94501.53;;;-1.58;100.00
51829;BME280;37881;48.024;8.774;2024-01-10T10:23:59;94500.78;;;-1.68;100.00
51829;BME280;37881;48.024;8.774;2024-01-10T10:26:27;94505.56;;;-1.82;100.00
51829;BME280;37881;48.024;8.774;2024-01-10T10:28:55;94503.66;;;-1.43;100.00
51829;BME280;37881;48.024;8.774;2024-01-10T10:31:23;94504.16;;;-1.50;100.00
51829;BME280;37881;48.024;8.774;2024-01-10T10:33:51;94505.94;;;-1.24;100.00
51829;BME280;37881;48.024;8.774;2024-01-10T10:36:19;94508.16;;;-0.75;100.00
51829;BME280;37881;48.024;8.774;2024-01-10T10:38:48;94503.31;;;-0.49;100.00
51829;BME280;37881;48.024;8.774;2024-01-10T10:41:15;94504.44;;;-0.16;100.00
51829;BME280;37881;48.024;8.774;2024-01-10T10:43:42;94504.88;;;0.07;100.00
51829;BME280;37881;48.024;8.774;2024-01-10T10:46:11;94498.16;;;0.50;100.00
51829;BME280;37881;48.024;8.774;2024-01-10T10:48:42;94499.75;;;0.88;100.00
51829;BME280;37881;48.024;8.774;2024-01-10T10:51:11;94499.31;;;0.61;100.00
51829;BME280;37881;48.024;8.774;2024-01-10T10:53:39;94504.25;;;0.59;100.00
51829;BME280;37881;48.024;8.774;2024-01-10T10:56:08;94503.44;;;0.95;100.00
51829;BME280;37881;48.024;8.774;2024-01-10T10:58:44;94492.09;;;0.77;100.00
51829;BME280;37881;48.024;8.774;2024-01-10T11:01:13;94499.28;;;0.98;100.00
51829;BME280;37881;48.024;8.774;2024-01-10T11:03:41;94485.84;;;1.14;100.00
51829;BME280;37881;48.024;8.774;2024-01-10T11:06:09;94491.13;;;1.23;100.00
51829;BME280;37881;48.024;8.774;2024-01-10T11:08:42;94483.28;;;1.05;100.00
51829;BME280;37881;48.024;8.774;2024-01-10T11:22:46;94484.75;;;0.90;100.00
51829;BME280;37881;48.024;8.774;2024-01-10T11:25:18;94484.72;;;1.15;100.00
51829;BME280;37881;48.024;8.774;2024-01-10T11:27:52;94483.22;;;0.77;100.00
51829;BME280;37881;48.024;8.774;2024-01-10T11:30:36;94491.16;;;0.98;100.00
51829;BME280;37881;48.024;8.774;2024-01-10T11:33:21;94481.56;;;1.53;100.00
51829;BME280;37881;48.024;8.774;2024-01-10T11:36:17;94488.81;;;0.72;100.00
51829;BME280;37881;48.024;8.774;2024-01-10T11:41:34;94490.94;;;0.17;100.00
51829;BME280;37881;48.024;8.774;2024-01-10T11:46:40;94483.03;;;1.10;100.00
51829;BME280;37881;48.024;8.774;2024-01-10T11:49:08;94484.66;;;1.39;100.00
51829;BME280;37881;48.024;8.774;2024-01-10T11:51:35;94482.16;;;0.94;100.00
51829;BME280;37881;48.024;8.774;2024-01-10T11:54:03;94483.09;;;0.61;100.00
51829;BME280;37881;48.024;8.774;2024-01-10T11:56:38;94480.16;;;0.42;100.00
51829;BME280;37881;48.024;8.774;2024-01-10T11:59:13;94482.75;;;0.38;100.00
51829;BME280;37881;48.024;8.774;2024-01-10T12:01:42;94471.94;;;0.26;100.00
51829;BME280;37881;48.024;8.774;2024-01-10T12:04:09;94470.50;;;0.28;100.00
51829;BME280;37881;48.024;8.774;2024-01-10T12:06:46;94475.78;;;0.25;100.00
51829;BME280;37881;48.024;8.774;2024-01-10T12:09:14;94472.63;;;0.72;100.00
51829;BME280;37881;48.024;8.774;2024-01-10T12:11:41;94478.31;;;1.07;100.00
51829;BME280;37881;48.024;8.774;2024-01-10T12:14:10;94477.16;;;1.20;100.00
51829;BME280;37881;48.024;8.774;2024-01-10T12:16:38;94477.53;;;0.94;100.00
51829;BME280;37881;48.024;8.774;2024-01-10T12:19:05;94472.94;;;0.21;100.00
51829;BME280;37881;48.024;8.774;2024-01-10T12:21:32;94474.41;;;0.06;100.00
51829;BME280;37881;48.024;8.774;2024-01-10T12:23:59;94472.69;;;0.02;100.00
51829;BME280;37881;48.024;8.774;2024-01-10T12:26:26;94469.00;;;-0.39;100.00
51829;BME280;37881;48.024;8.774;2024-01-10T12:28:56;94473.81;;;-0.12;100.00
51829;BME280;37881;48.024;8.774;2024-01-10T12:31:24;94470.50;;;0.53;100.00
51829;BME280;37881;48.024;8.774;2024-01-10T12:33:55;94462.66;;;-0.10;100.00
51829;BME280;37881;48.024;8.774;2024-01-10T12:36:22;94465.63;;;0.22;100.00
51829;BME280;37881;48.024;8.774;2024-01-10T12:38:49;94460.47;;;0.16;100.00
51829;BME280;37881;48.024;8.774;2024-01-10T12:41:17;94453.41;;;0.49;100.00
51829;BME280;37881;48.024;8.774;2024-01-10T12:43:54;94449.66;;;1.18;100.00
51829;BME280;37881;48.024;8.774;2024-01-10T12:46:22;94451.75;;;1.09;100.00
51829;BME280;37881;48.024;8.774;2024-01-10T12:51:29;94447.75;;;1.59;100.00
51829;BME280;37881;48.024;8.774;2024-01-10T12:53:57;94444.09;;;1.39;100.00
51829;BME280;37881;48.024;8.774;2024-01-10T12:56:26;94447.94;;;0.98;100.00
51829;BME280;37881;48.024;8.774;2024-01-10T12:58:54;94447.69;;;1.03;100.00
51829;BME280;37881;48.024;8.774;2024-01-10T13:01:26;94439.50;;;0.87;100.00
51829;BME280;37881;48.024;8.774;2024-01-10T13:03:54;94447.91;;;1.10;100.00
51829;BME280;37881;48.024;8.774;2024-01-10T13:06:21;94446.34;;;1.09;100.00
51829;BME280;37881;48.024;8.774;2024-01-10T13:08:49;94447.16;;;0.97;100.00
51829;BME280;37881;48.024;8.774;2024-01-10T13:11:16;94440.91;;;0.56;100.00
51829;BME280;37881;48.024;8.774;2024-01-10T13:13:43;94445.63;;;0.23;100.00
51829;BME280;37881;48.024;8.774;2024-01-10T13:16:10;94437.88;;;0.33;100.00